Corunna, Michigan
Current Conditions -  °F | °C
As of 11:13 PM on Wednesday 26 Nov 2014 (Local Time) from KRNP Reporting Station
Overcast Overcast  
Wind Chill: 29°   Ceiling: 4100
Heat Index: 29°   Visibility: 10mi
Dew Point: 25°   Wind: 3mph
Humidity: 85%   Direction: 340°NNW
Pressure: 30.12"   Gusts: NA
Location:  42.98°N, 84.12°W
Report Text: KRNP 270413Z AUTO 34003KT 10SM SCT013 OVC041 M02/M04 A3012 RMK AO2 T10181040
Loading
Personal Weather Stations






























Interactive Weather Map New forecast layout! Learn more

10-Day Weather Forecast

Advertisements
Track Severe Weather on mobile